Terminal Aerodrome Forecast
Issued by NWS

Home | Current Version | Previous Version | Text Only | Print | Product List | Glossary On
Versions: 1 2 3 4 5 6 7 8 9 10 11 12 13 14
345
FTUS46 KSEW 141741
TAFBFI
TAF
KBFI 141741Z 1418/1518 15006KT 6SM -RA BR BKN009 OVC012
     FM142100 17009KT P6SM VCSH SCT010 OVC016
     FM150400 18015G25KT 6SM -RA BR OVC012
     FM151400 18011G18KT 5SM -RA BR OVC009=

USA.gov is the U.S. government's official web portal to all federal, state and local government web resources and services.